createdAt,value
2023-04-16T00:01:59.718Z,96029.03
2023-04-16T00:06:13.341Z,96023.56
2023-04-16T00:10:25.782Z,96022.78
2023-04-16T00:14:38.349Z,96029.59
2023-04-16T00:18:51.040Z,96032.28
2023-04-16T00:23:13.500Z,96041.38
2023-04-16T00:27:26.001Z,96027.06
2023-04-16T00:31:42.754Z,96033.84
2023-04-16T00:35:55.260Z,96031.66
2023-04-16T00:40:12.647Z,96029.59
2023-04-16T00:44:25.077Z,96026.72
2023-04-16T00:48:40.638Z,96024.84
2023-04-16T00:52:53.109Z,96029.81
2023-04-16T00:57:05.572Z,96013.56
2023-04-16T01:01:18.093Z,96031.72
2023-04-16T01:05:31.212Z,96027.81
2023-04-16T01:09:43.677Z,96027.72
2023-04-16T01:13:56.248Z,96025.19
2023-04-16T01:18:20.673Z,96035.41
2023-04-16T01:22:33.256Z,96035.38
2023-04-16T01:26:45.701Z,96033.28
2023-04-16T01:30:58.144Z,96040.88
2023-04-16T01:35:10.612Z,96031.66
2023-04-16T01:39:29.148Z,96028.72
2023-04-16T01:43:43.253Z,96044.63
2023-04-16T01:48:06.186Z,96046.25
2023-04-16T01:52:18.718Z,96034.69
2023-04-16T01:56:31.263Z,96051.72
2023-04-16T02:00:43.785Z,96055.25
2023-04-16T02:04:58.177Z,96052.50
2023-04-16T02:09:10.898Z,96045.72
2023-04-16T02:13:24.218Z,96041.63
2023-04-16T02:17:36.889Z,96054.47
2023-04-16T02:21:50.020Z,96049.09
2023-04-16T02:26:04.400Z,96045.94
2023-04-16T02:30:17.470Z,96047.47
2023-04-16T02:34:29.906Z,96039.22
2023-04-16T02:38:42.358Z,96053.03
2023-04-16T02:42:55.482Z,96061.97
2023-04-16T02:47:07.926Z,96076.38
2023-04-16T02:51:20.369Z,96066.22
2023-04-16T02:55:32.821Z,96064.13
2023-04-16T02:59:45.308Z,96069.47
2023-04-16T03:03:59.997Z,96070.69
2023-04-16T03:08:12.676Z,96069.25
2023-04-16T03:12:25.185Z,96068.69
2023-04-16T03:16:37.666Z,96062.34
2023-04-16T03:20:54.184Z,96066.34
2023-04-16T03:25:08.150Z,96074.50
2023-04-16T03:29:30.664Z,96079.78
2023-04-16T03:33:48.779Z,96070.66
2023-04-16T03:38:01.346Z,96068.81
2023-04-16T03:42:13.751Z,96075.63
2023-04-16T03:46:26.262Z,96085.34
2023-04-16T03:50:38.804Z,96092.41
2023-04-16T03:54:51.421Z,96093.81
2023-04-16T03:59:04.036Z,96091.91
2023-04-16T04:03:18.046Z,96091.03
2023-04-16T04:07:30.719Z,96096.22
2023-04-16T04:11:44.111Z,96104.44
2023-04-16T04:15:59.598Z,96098.81
2023-04-16T04:20:13.056Z,96119.56
2023-04-16T04:24:25.491Z,96103.22
2023-04-16T04:28:38.030Z,96103.84
2023-04-16T04:32:50.642Z,96106.91
2023-04-16T04:37:03.345Z,96119.72
2023-04-16T04:41:15.800Z,96123.31
2023-04-16T04:45:31.169Z,96122.75
2023-04-16T04:49:44.342Z,96119.28
2023-04-16T04:53:56.784Z,96133.59
2023-04-16T04:58:10.464Z,96132.13
2023-04-16T05:02:22.963Z,96129.38
2023-04-16T05:06:35.489Z,96139.94
2023-04-16T05:10:47.905Z,96136.19
2023-04-16T05:15:11.220Z,96132.25
2023-04-16T05:19:33.681Z,96154.16
2023-04-16T05:23:46.215Z,96149.94
2023-04-16T05:27:58.650Z,96157.78
2023-04-16T05:32:11.600Z,96151.63
2023-04-16T05:36:24.137Z,96161.41
2023-04-16T05:40:37.512Z,96159.22
2023-04-16T05:44:52.004Z,96167.78
2023-04-16T05:49:04.504Z,96166.16
2023-04-16T05:53:26.990Z,96174.97
2023-04-16T05:57:39.423Z,96166.84
2023-04-16T06:01:51.905Z,96156.19
2023-04-16T06:06:04.479Z,96174.13
2023-04-16T06:10:17.051Z,96176.41
2023-04-16T06:14:29.580Z,96183.31
2023-04-16T06:18:42.367Z,96174.75
2023-04-16T06:22:54.872Z,96178.03
2023-04-16T06:27:07.373Z,96190.25
2023-04-16T06:31:19.863Z,96184.28
2023-04-16T06:35:32.413Z,96191.88
2023-04-16T06:39:45.068Z,96191.91
2023-04-16T06:43:57.490Z,96189.03
2023-04-16T06:48:09.924Z,96199.81
2023-04-16T06:52:22.479Z,96203.59
2023-04-16T06:56:38.223Z,96210.97
2023-04-16T07:00:50.726Z,96216.31
2023-04-16T07:05:07.529Z,96212.41
2023-04-16T07:09:20.015Z,96206.59
2023-04-16T07:13:32.474Z,96201.78
2023-04-16T07:17:45.115Z,96205.03
2023-04-16T07:21:57.548Z,96210.84
2023-04-16T07:26:10.081Z,96213.69
2023-04-16T07:30:22.565Z,96218.03
2023-04-16T07:34:43.776Z,96208.53
2023-04-16T07:38:59.132Z,96209.94
2023-04-16T07:43:11.750Z,96206.41
2023-04-16T07:47:24.314Z,96211.66
2023-04-16T07:51:36.813Z,96213.00
2023-04-16T07:55:49.323Z,96219.34
2023-04-16T08:00:03.060Z,96229.84
2023-04-16T08:04:17.988Z,96235.50
2023-04-16T08:08:30.920Z,96231.75
2023-04-16T08:12:43.413Z,96235.91
2023-04-16T08:16:56.001Z,96242.06
2023-04-16T08:21:08.427Z,96244.34
2023-04-16T08:25:21.477Z,96252.06
2023-04-16T08:29:34.028Z,96254.44
2023-04-16T08:33:46.674Z,96251.97
2023-04-16T08:38:02.259Z,96252.53
2023-04-16T08:42:33.682Z,96262.53
2023-04-16T08:46:47.662Z,96258.25
2023-04-16T08:51:02.324Z,96260.63
2023-04-16T08:55:15.641Z,96258.38
2023-04-16T08:59:29.382Z,96259.22
2023-04-16T09:03:42.609Z,96276.44
2023-04-16T09:07:55.721Z,96275.03
2023-04-16T09:12:09.736Z,96279.81
2023-04-16T09:16:34.822Z,96278.63
2023-04-16T09:20:48.691Z,96279.69
2023-04-16T09:25:01.265Z,96280.16
2023-04-16T09:29:41.992Z,96294.69
2023-04-16T09:34:10.567Z,96282.75
2023-04-16T09:38:23.121Z,96279.53
2023-04-16T09:42:37.953Z,96283.84
2023-04-16T09:46:50.383Z,96282.00
2023-04-16T09:51:03.146Z,96286.69
2023-04-16T09:55:16.187Z,96283.19
2023-04-16T09:59:32.023Z,96285.81
2023-04-16T10:03:44.740Z,96282.25
2023-04-16T10:08:02.894Z,96294.94
2023-04-16T10:12:16.914Z,96296.25
2023-04-16T10:16:31.616Z,96307.88
2023-04-16T10:20:45.397Z,96305.66
2023-04-16T10:24:59.366Z,96310.44
2023-04-16T10:29:14.875Z,96298.69
2023-04-16T10:33:32.114Z,96301.00
2023-04-16T10:37:45.830Z,96303.28
2023-04-16T10:42:12.855Z,96302.06
2023-04-16T10:46:39.667Z,96297.81
2023-04-16T10:50:58.308Z,96299.94
2023-04-16T10:55:18.483Z,96299.84
2023-04-16T10:59:37.060Z,96299.41
2023-04-16T11:03:50.011Z,96302.13
2023-04-16T11:08:15.374Z,96282.13
2023-04-16T11:12:50.117Z,96319.94
2023-04-16T11:17:04.862Z,96323.38
2023-04-16T11:21:18.038Z,96312.84
2023-04-16T11:25:32.361Z,96312.38
2023-04-16T11:29:46.967Z,96317.03
2023-04-16T11:34:00.928Z,96321.66
2023-04-16T11:38:21.925Z,96328.38
2023-04-16T11:42:42.158Z,96315.91
2023-04-16T11:46:55.622Z,96325.97
2023-04-16T11:51:09.282Z,96329.06
2023-04-16T11:55:22.410Z,96321.72
2023-04-16T12:00:02.029Z,96321.91
2023-04-16T12:04:18.489Z,96326.44
2023-04-16T12:08:35.101Z,96334.41
2023-04-16T12:12:47.601Z,96331.97
2023-04-16T12:17:21.182Z,96334.38
2023-04-16T12:21:48.605Z,96332.22
2023-04-16T12:26:11.064Z,96333.84
2023-04-16T12:30:27.066Z,96328.34
2023-04-16T12:34:52.165Z,96335.41
2023-04-16T12:39:04.680Z,96334.41
2023-04-16T12:43:26.504Z,96330.13
2023-04-16T12:47:41.813Z,96331.47
2023-04-16T12:51:54.314Z,96324.31
2023-04-16T12:56:06.896Z,96334.75
2023-04-16T13:00:20.877Z,96338.09
2023-04-16T13:04:33.350Z,96333.22
2023-04-16T13:08:46.683Z,96327.22
2023-04-16T13:12:59.153Z,96336.44
2023-04-16T13:17:11.884Z,96321.88
2023-04-16T13:21:24.597Z,96322.69
2023-04-16T13:25:37.562Z,96335.28
2023-04-16T13:29:49.959Z,96336.25
2023-04-16T13:34:05.583Z,96327.91
2023-04-16T13:38:18.697Z,96326.47
2023-04-16T13:42:37.597Z,96338.69
2023-04-16T13:46:50.486Z,96351.19
2023-04-16T13:51:03.732Z,96337.63
2023-04-16T13:55:26.286Z,96343.88
2023-04-16T13:59:39.024Z,96343.28
2023-04-16T14:03:51.955Z,96346.16
2023-04-16T14:08:04.472Z,96351.38
2023-04-16T14:12:21.490Z,96345.38
2023-04-16T14:16:35.430Z,96342.59
2023-04-16T14:20:48.757Z,96350.25
2023-04-16T14:25:01.888Z,96354.38
2023-04-16T14:29:14.469Z,96343.53
2023-04-16T14:33:27.170Z,96348.44
2023-04-16T14:37:39.802Z,96355.03
2023-04-16T14:42:02.251Z,96347.16
2023-04-16T14:46:18.357Z,96354.34
2023-04-16T14:50:31.047Z,96354.56
2023-04-16T14:54:55.587Z,96364.50
2023-04-16T14:59:08.782Z,96363.47
2023-04-16T15:03:21.737Z,96353.34
2023-04-16T15:07:34.234Z,96351.81
2023-04-16T15:11:46.985Z,96365.31
2023-04-16T15:15:59.486Z,96360.56
2023-04-16T15:20:12.731Z,96367.31
2023-04-16T15:24:25.418Z,96365.00
2023-04-16T15:28:43.496Z,96351.13
2023-04-16T15:32:56.413Z,96356.38
2023-04-16T15:37:09.160Z,96356.72
2023-04-16T15:41:21.710Z,96357.03
2023-04-16T15:45:34.389Z,96367.16
2023-04-16T15:49:46.897Z,96345.91
2023-04-16T15:53:59.449Z,96358.81
2023-04-16T15:58:12.294Z,96366.78
2023-04-16T16:02:25.014Z,96380.94
2023-04-16T16:06:38.893Z,96376.16
2023-04-16T16:11:01.382Z,96377.25
2023-04-16T16:15:13.828Z,96378.19
2023-04-16T16:19:26.603Z,96373.00
2023-04-16T16:23:39.069Z,96381.47
2023-04-16T16:27:53.587Z,96373.81
2023-04-16T16:32:06.246Z,96374.53
2023-04-16T16:36:19.098Z,96376.81
2023-04-16T16:40:31.849Z,96385.13
2023-04-16T16:44:44.306Z,96370.16
2023-04-16T16:48:56.739Z,96368.50
2023-04-16T16:53:09.250Z,96386.03
2023-04-16T16:57:21.794Z,96381.47
2023-04-16T17:01:44.182Z,96384.78
2023-04-16T17:05:56.722Z,96381.63
2023-04-16T17:10:12.059Z,96395.34
2023-04-16T17:14:25.205Z,96412.38
2023-04-16T17:18:37.677Z,96408.91
2023-04-16T17:22:50.297Z,96409.25
2023-04-16T17:27:04.911Z,96415.00
2023-04-16T17:31:17.889Z,96415.75
2023-04-16T17:35:31.946Z,96427.56
2023-04-16T17:39:44.866Z,96423.44
2023-04-16T17:43:57.357Z,96434.41
2023-04-16T17:48:09.790Z,96441.47
2023-04-16T17:52:28.040Z,96439.16
2023-04-16T17:56:40.514Z,96437.88
2023-04-16T18:00:53.009Z,96441.84
2023-04-16T18:05:08.029Z,96454.13
2023-04-16T18:09:20.619Z,96454.78
2023-04-16T18:13:33.025Z,96465.53
2023-04-16T18:17:45.622Z,96468.28
2023-04-16T18:21:59.532Z,96481.28
2023-04-16T18:26:12.752Z,96483.00
2023-04-16T18:30:30.273Z,96483.69
2023-04-16T18:34:43.242Z,96485.81
2023-04-16T18:39:01.578Z,96500.13
2023-04-16T18:43:14.416Z,96505.88
2023-04-16T18:47:27.038Z,96501.50
2023-04-16T18:51:39.517Z,96504.78
2023-04-16T18:55:55.446Z,96512.31
2023-04-16T19:00:13.580Z,96513.50
2023-04-16T19:04:26.105Z,96520.13
2023-04-16T19:08:38.608Z,96522.19
2023-04-16T19:12:51.122Z,96523.03
2023-04-16T19:17:11.267Z,96524.13
2023-04-16T19:21:24.398Z,96527.94
2023-04-16T19:25:38.094Z,96532.88
2023-04-16T19:29:50.524Z,96534.91
2023-04-16T19:34:08.206Z,96526.44
2023-04-16T19:38:20.689Z,96530.84
2023-04-16T19:42:33.569Z,96516.59
2023-04-16T19:46:46.397Z,96528.09
2023-04-16T19:51:04.203Z,96528.09
2023-04-16T19:55:19.936Z,96522.81
2023-04-16T19:59:33.081Z,96526.81
2023-04-16T20:03:45.684Z,96534.47
2023-04-16T20:07:58.606Z,96534.88
2023-04-16T20:12:11.244Z,96538.66
2023-04-16T20:16:24.100Z,96533.53
2023-04-16T20:20:38.565Z,96522.75
2023-04-16T20:24:55.747Z,96527.16
2023-04-16T20:29:08.332Z,96539.44
2023-04-16T20:33:23.862Z,96536.81
2023-04-16T20:37:38.913Z,96529.53
2023-04-16T20:41:57.351Z,96532.00
2023-04-16T20:46:11.526Z,96534.34
2023-04-16T20:50:24.088Z,96538.66
2023-04-16T20:54:36.580Z,96529.03
2023-04-16T20:58:49.007Z,96528.81
2023-04-16T21:03:01.784Z,96537.47
2023-04-16T21:07:14.423Z,96528.91
2023-04-16T21:11:27.031Z,96538.22
2023-04-16T21:15:44.217Z,96541.75
2023-04-16T21:19:56.966Z,96542.22
2023-04-16T21:24:09.504Z,96541.75
2023-04-16T21:28:22.817Z,96542.44
2023-04-16T21:32:35.364Z,96535.78
2023-04-16T21:36:47.856Z,96548.50
2023-04-16T21:41:01.810Z,96542.06
2023-04-16T21:45:20.335Z,96539.66
2023-04-16T21:49:38.586Z,96538.31
2023-04-16T21:53:51.087Z,96541.59
2023-04-16T21:58:04.690Z,96533.81
2023-04-16T22:02:17.349Z,96542.19
2023-04-16T22:06:29.925Z,96538.19
2023-04-16T22:10:42.376Z,96536.03
2023-04-16T22:15:02.403Z,96526.97
2023-04-16T22:19:15.682Z,96525.25
2023-04-16T22:23:28.136Z,96526.38
2023-04-16T22:27:50.651Z,96519.94
2023-04-16T22:32:03.404Z,96518.78
2023-04-16T22:36:16.392Z,96523.22
2023-04-16T22:40:32.599Z,96524.41
2023-04-16T22:44:45.036Z,96518.59
2023-04-16T22:48:58.578Z,96518.38
2023-04-16T22:53:11.259Z,96525.22
2023-04-16T22:57:26.275Z,96526.56
2023-04-16T23:01:39.337Z,96524.53
2023-04-16T23:06:01.803Z,96522.03
2023-04-16T23:10:14.299Z,96512.75
2023-04-16T23:14:27.445Z,96515.34
2023-04-16T23:18:39.872Z,96515.34
2023-04-16T23:22:53.541Z,96520.44
2023-04-16T23:27:06.257Z,96518.69
2023-04-16T23:31:18.724Z,96529.63
2023-04-16T23:35:31.480Z,96523.13
2023-04-16T23:39:44.016Z,96516.19
2023-04-16T23:43:56.541Z,96514.16
2023-04-16T23:48:09.054Z,96529.47
2023-04-16T23:52:21.643Z,96527.16
2023-04-16T23:56:34.112Z,96503.44
